Madison Heights, Virginia
Current Conditions -  °F | °C
As of 11:14 AM on Thursday 27 Nov 2014 (Local Time) from KLYH Reporting Station
Broken Clouds Broken Clouds  
Wind Chill: 44°   Ceiling: 1200
Heat Index: 44°   Visibility: 10mi
Dew Point: 40°   Wind: 3mph
Humidity: 85%   Direction: NA
Pressure: 30.05"   Gusts: NA
Location:  37.42°N, 79.12°W
Report Text: KLYH 271614Z VRB03KT 10SM BKN012 BKN018 07/04 A3005 RMK AO2 T00670044 $
Loading
Personal Weather Stations






























Interactive Weather Map New forecast layout! Learn more

10-Day Weather Forecast

Advertisements
Track Severe Weather on mobile